Station Historical Data
Daily Summary for June 3, 2017 Units:  Both    English   Metric
« Previous Day
Next Day »
Daily Weekly Monthly Yearly Custom
  High: Low: Average:
Temperature: 70.2 °F /  21.2 °C 50.6 °F /  10.3 °C 60.8 °F /  16 °C
Dew Point: 51.5 °F /  10.8 °C 41.6 °F /  5.3 °C 46 °F /  7.8 °C
Humidity: 86% 40% 60%
Wind Speed: 7.0mph /  11.3km/h - 2.1mph /  3.4km/h
Wind Gust: 15.0mph /  24.1km/h - -
Wind- - SW
Pressure: 30.08 in /  1018.5 hPa 29.99 in /  1015.5 hPa -
Precipitation: 0.00 in /  0 mm    
Historical Graphs
 
 
Tabular Data for June 3, 2017
Time Temperature Dew Point Pressure Wind Wind Speed Wind Gust Humidity Rainfall Rate (Hourly)
00:04 53.8 °F /  12.1 °C 46.8 °F /  8.2 °C 30.00in /  1015.8hPa Calm     77% 0.00in /  0mm
00:09 53.6 °F /  12 °C 46.6 °F /  8.1 °C 30.00in /  1015.8hPa Calm     77% 0.00in /  0mm
00:14 53.4 °F /  11.9 °C 46.7 °F /  8.2 °C 29.99in /  1015.5hPa Calm     78% 0.00in /  0mm
00:19 53.3 °F /  11.8 °C 46.6 °F /  8.1 °C 30.00in /  1015.8hPa Calm     78% 0.00in /  0mm
00:24 53.3 °F /  11.8 °C 46.6 °F /  8.1 °C 29.99in /  1015.5hPa Calm     78% 0.00in /  0mm
00:29 53.3 °F /  11.8 °C 46.6 °F /  8.1 °C 29.99in /  1015.5hPa Calm     78% 0.00in /  0mm
00:34 53.4 °F /  11.9 °C 46.7 °F /  8.2 °C 29.99in /  1015.5hPa Calm     78% 0.00in /  0mm
00:39 53.4 °F /  11.9 °C 46.7 °F /  8.2 °C 29.99in /  1015.5hPa Calm     78% 0.00in /  0mm
00:44 53.4 °F /  11.9 °C 46.7 °F /  8.2 °C 29.99in /  1015.5hPa Calm     78% 0.00in /  0mm
00:49 53.3 °F /  11.8 °C 46.3 °F /  7.9 °C 30.00in /  1015.8hPa Calm     77% 0.00in /  0mm
00:54 53.3 °F /  11.8 °C 46.3 °F /  7.9 °C 29.99in /  1015.5hPa Calm     77% 0.00in /  0mm
00:59 53.2 °F /  11.8 °C 46.5 °F /  8.1 °C 29.99in /  1015.5hPa Calm     78% 0.00in /  0mm
01:04 53.2 °F /  11.8 °C 46.2 °F /  7.9 °C 29.99in /  1015.5hPa Calm     77% 0.00in /  0mm
01:09 53.4 °F /  11.9 °C 46.4 °F /  8 °C 29.99in /  1015.5hPa Calm   2.0mph /  3.2km/h 77% 0.00in /  0mm
01:14 53.6 °F /  12 °C 46.2 °F /  7.9 °C 29.99in /  1015.5hPa NW 1.0mph /  1.6km/h 3.0mph /  4.8km/h 76% 0.00in /  0mm
01:19 54.1 °F /  12.3 °C 46.3 °F /  7.9 °C 29.99in /  1015.5hPa NW 1.0mph /  1.6km/h 3.0mph /  4.8km/h 75% 0.00in /  0mm
01:24 54.3 °F /  12.4 °C 46.2 °F /  7.9 °C 29.99in /  1015.5hPa NNW 1.0mph /  1.6km/h 3.0mph /  4.8km/h 74% 0.00in /  0mm
01:29 54.4 °F /  12.4 °C 45.9 °F /  7.7 °C 29.99in /  1015.5hPa NNW 2.0mph /  3.2km/h 3.0mph /  4.8km/h 73% 0.00in /  0mm
01:34 54.6 °F /  12.6 °C 46.1 °F /  7.8 °C 29.99in /  1015.5hPa NNW 1.0mph /  1.6km/h 3.0mph /  4.8km/h 73% 0.00in /  0mm
01:39 54.7 °F /  12.6 °C 46.2 °F /  7.9 °C 29.99in /  1015.5hPa Calm   1.0mph /  1.6km/h 73% 0.00in /  0mm
01:44 54.7 °F /  12.6 °C 45.8 °F /  7.7 °C 29.99in /  1015.5hPa Calm   1.0mph /  1.6km/h 72% 0.00in /  0mm
01:49 54.7 °F /  12.6 °C 45.5 °F /  7.5 °C 29.99in /  1015.5hPa Calm   2.0mph /  3.2km/h 71% 0.00in /  0mm
01:54 54.7 °F /  12.6 °C 45.1 °F /  7.3 °C 29.99in /  1015.5hPa North 1.0mph /  1.6km/h 3.0mph /  4.8km/h 70% 0.00in /  0mm
01:59 54.6 °F /  12.6 °C 45.0 °F /  7.2 °C 29.99in /  1015.5hPa NNW 1.0mph /  1.6km/h 5.0mph /  8km/h 70% 0.00in /  0mm
02:04 54.5 °F /  12.5 °C 44.9 °F /  7.2 °C 29.99in /  1015.5hPa North 1.0mph /  1.6km/h 5.0mph /  8km/h 70% 0.00in /  0mm
02:09 54.6 °F /  12.6 °C 45.0 °F /  7.2 °C 29.99in /  1015.5hPa NNW 1.0mph /  1.6km/h 3.0mph /  4.8km/h 70% 0.00in /  0mm
02:14 54.4 °F /  12.4 °C 44.8 °F /  7.1 °C 29.99in /  1015.5hPa NNW 1.0mph /  1.6km/h 5.0mph /  8km/h 70% 0.00in /  0mm
02:19 54.4 °F /  12.4 °C 44.4 °F /  6.9 °C 29.99in /  1015.5hPa NNW 1.0mph /  1.6km/h 5.0mph /  8km/h 69% 0.00in /  0mm
02:29 54.2 °F /  12.3 °C 44.2 °F /  6.8 °C 30.00in /  1015.8hPa NNW 2.0mph /  3.2km/h 4.0mph /  6.4km/h 69% 0.00in /  0mm
02:34 54.1 °F /  12.3 °C 44.2 °F /  6.8 °C 30.00in /  1015.8hPa NNW 3.0mph /  4.8km/h 5.0mph /  8km/h 69% 0.00in /  0mm
02:39 54.0 °F /  12.2 °C 43.7 °F /  6.5 °C 30.00in /  1015.8hPa Calm   7.0mph /  11.3km/h 68% 0.00in /  0mm
02:44 53.9 °F /  12.2 °C 43.6 °F /  6.4 °C 30.00in /  1015.8hPa Calm   5.0mph /  8km/h 68% 0.00in /  0mm
02:49 53.8 °F /  12.1 °C 43.5 °F /  6.4 °C 30.00in /  1015.8hPa North 2.0mph /  3.2km/h 3.0mph /  4.8km/h 68% 0.00in /  0mm
02:54 53.8 °F /  12.1 °C 43.9 °F /  6.6 °C 29.99in /  1015.5hPa North 2.0mph /  3.2km/h 3.0mph /  4.8km/h 69% 0.00in /  0mm
02:59 53.8 °F /  12.1 °C 43.9 °F /  6.6 °C 29.99in /  1015.5hPa North 1.0mph /  1.6km/h 2.0mph /  3.2km/h 69% 0.00in /  0mm
03:04 53.9 °F /  12.2 °C 44.0 °F /  6.7 °C 30.00in /  1015.8hPa North 1.0mph /  1.6km/h 4.0mph /  6.4km/h 69% 0.00in /  0mm
03:09 53.9 °F /  12.2 °C 44.0 °F /  6.7 °C 30.00in /  1015.8hPa North 1.0mph /  1.6km/h 4.0mph /  6.4km/h 69% 0.00in /  0mm
03:14 53.9 °F /  12.2 °C 43.6 °F /  6.4 °C 30.00in /  1015.8hPa NNW 2.0mph /  3.2km/h 5.0mph /  8km/h 68% 0.00in /  0mm
03:19 53.9 °F /  12.2 °C 44.0 °F /  6.7 °C 30.00in /  1015.8hPa NNW 2.0mph /  3.2km/h 5.0mph /  8km/h 69% 0.00in /  0mm
03:24 53.8 °F /  12.1 °C 43.9 °F /  6.6 °C 29.99in /  1015.5hPa Calm   3.0mph /  4.8km/h 69% 0.00in /  0mm
03:29 53.9 °F /  12.2 °C 43.6 °F /  6.4 °C 29.99in /  1015.5hPa ENE 1.0mph /  1.6km/h 4.0mph /  6.4km/h 68% 0.00in /  0mm
03:34 54.0 °F /  12.2 °C 44.1 °F /  6.7 °C 29.99in /  1015.5hPa NE 1.0mph /  1.6km/h 4.0mph /  6.4km/h 69% 0.00in /  0mm
03:39 53.9 °F /  12.2 °C 44.7 °F /  7.1 °C 30.00in /  1015.8hPa North 1.0mph /  1.6km/h 3.0mph /  4.8km/h 71% 0.00in /  0mm
03:44 53.8 °F /  12.1 °C 44.6 °F /  7 °C 30.00in /  1015.8hPa Calm   2.0mph /  3.2km/h 71% 0.00in /  0mm
03:49 53.7 °F /  12.1 °C 45.2 °F /  7.3 °C 30.00in /  1015.8hPa Calm   2.0mph /  3.2km/h 73% 0.00in /  0mm
03:54 53.5 °F /  11.9 °C 45.4 °F /  7.4 °C 30.00in /  1015.8hPa Calm     74% 0.00in /  0mm
03:59 53.3 °F /  11.8 °C 45.2 °F /  7.3 °C 30.00in /  1015.8hPa Calm     74% 0.00in /  0mm
04:04 53.3 °F /  11.8 °C 45.6 °F /  7.6 °C 30.00in /  1015.8hPa Calm     75% 0.00in /  0mm
04:09 53.1 °F /  11.7 °C 45.4 °F /  7.4 °C 30.00in /  1015.8hPa Calm     75% 0.00in /  0mm
04:14 53.1 °F /  11.7 °C 46.1 °F /  7.8 °C 30.00in /  1015.8hPa Calm     77% 0.00in /  0mm
04:19 52.8 °F /  11.6 °C 45.4 °F /  7.4 °C 30.00in /  1015.8hPa Calm     76% 0.00in /  0mm
04:24 52.6 °F /  11.4 °C 45.9 °F /  7.7 °C 30.00in /  1015.8hPa Calm     78% 0.00in /  0mm
04:29 52.7 °F /  11.5 °C 46.4 °F /  8 °C 30.01in /  1016.1hPa Calm     79% 0.00in /  0mm
04:34 52.8 °F /  11.6 °C 46.5 °F /  8.1 °C 30.01in /  1016.1hPa Calm     79% 0.00in /  0mm
04:39 52.7 °F /  11.5 °C 46.4 °F /  8 °C 30.01in /  1016.1hPa Calm     79% 0.00in /  0mm
04:44 52.6 °F /  11.4 °C 46.3 °F /  7.9 °C 30.01in /  1016.1hPa Calm     79% 0.00in /  0mm
04:49 52.4 °F /  11.3 °C 46.1 °F /  7.8 °C 30.01in /  1016.1hPa Calm     79% 0.00in /  0mm
04:54 52.5 °F /  11.4 °C 46.5 °F /  8.1 °C 30.02in /  1016.5hPa Calm     80% 0.00in /  0mm
04:59 52.4 °F /  11.3 °C 46.1 °F /  7.8 °C 30.01in /  1016.1hPa Calm     79% 0.00in /  0mm
05:04 52.4 °F /  11.3 °C 45.7 °F /  7.6 °C 30.01in /  1016.1hPa Calm     78% 0.00in /  0mm
05:09 52.7 °F /  11.5 °C 46.7 °F /  8.2 °C 30.01in /  1016.1hPa Calm     80% 0.00in /  0mm
05:14 52.7 °F /  11.5 °C 46.7 °F /  8.2 °C 30.01in /  1016.1hPa Calm     80% 0.00in /  0mm
05:19 52.5 °F /  11.4 °C 46.5 °F /  8.1 °C 30.02in /  1016.5hPa Calm     80% 0.00in /  0mm
05:24 52.5 °F /  11.4 °C 46.2 °F /  7.9 °C 30.02in /  1016.5hPa Calm     79% 0.00in /  0mm
05:29 52.4 °F /  11.3 °C 46.7 °F /  8.2 °C 30.03in /  1016.8hPa Calm     81% 0.00in /  0mm
05:34 52.3 °F /  11.3 °C 46.6 °F /  8.1 °C 30.03in /  1016.8hPa Calm     81% 0.00in /  0mm
05:39 52.0 °F /  11.1 °C 46.3 °F /  7.9 °C 30.03in /  1016.8hPa Calm     81% 0.00in /  0mm
05:44 51.8 °F /  11 °C 46.5 °F /  8.1 °C 30.03in /  1016.8hPa Calm     82% 0.00in /  0mm
05:49 51.7 °F /  10.9 °C 46.7 °F /  8.2 °C 30.04in /  1017.2hPa Calm     83% 0.00in /  0mm
05:54 51.6 °F /  10.9 °C 46.6 °F /  8.1 °C 30.04in /  1017.2hPa Calm     83% 0.00in /  0mm
05:59 51.3 °F /  10.7 °C 46.6 °F /  8.1 °C 30.04in /  1017.2hPa Calm     84% 0.00in /  0mm
06:04 51.0 °F /  10.6 °C 46.3 °F /  7.9 °C 30.04in /  1017.2hPa Calm     84% 0.00in /  0mm
06:09 50.8 °F /  10.4 °C 46.5 °F /  8.1 °C 30.04in /  1017.2hPa Calm     85% 0.00in /  0mm
06:14 50.7 °F /  10.4 °C 46.4 °F /  8 °C 30.04in /  1017.2hPa Calm     85% 0.00in /  0mm
06:19 50.6 °F /  10.3 °C 46.6 °F /  8.1 °C 30.04in /  1017.2hPa Calm     86% 0.00in /  0mm
06:24 50.7 °F /  10.4 °C 46.7 °F /  8.2 °C 30.05in /  1017.5hPa Calm     86% 0.00in /  0mm
06:29 50.9 °F /  10.5 °C 46.9 °F /  8.3 °C 30.05in /  1017.5hPa Calm     86% 0.00in /  0mm
06:34 51.4 °F /  10.8 °C 47.4 °F /  8.6 °C 30.06in /  1017.8hPa Calm     86% 0.00in /  0mm
06:39 52.1 °F /  11.2 °C 47.7 °F /  8.7 °C 30.06in /  1017.8hPa North 1.0mph /  1.6km/h 2.0mph /  3.2km/h 85% 0.00in /  0mm
06:44 52.7 °F /  11.5 °C 47.7 °F /  8.7 °C 30.06in /  1017.8hPa Calm   2.0mph /  3.2km/h 83% 0.00in /  0mm
06:49 53.3 °F /  11.8 °C 47.3 °F /  8.5 °C 30.07in /  1018.2hPa Calm   1.0mph /  1.6km/h 80% 0.00in /  0mm
06:54 53.5 °F /  11.9 °C 46.5 °F /  8.1 °C 30.06in /  1017.8hPa Calm     77% 0.00in /  0mm
06:59 53.9 °F /  12.2 °C 46.2 °F /  7.9 °C 30.06in /  1017.8hPa Calm   3.0mph /  4.8km/h 75% 0.00in /  0mm
07:04 54.3 °F /  12.4 °C 45.8 °F /  7.7 °C 30.07in /  1018.2hPa NNE 1.0mph /  1.6km/h 3.0mph /  4.8km/h 73% 0.00in /  0mm
07:09 54.4 °F /  12.4 °C 45.9 °F /  7.7 °C 30.07in /  1018.2hPa NNE 1.0mph /  1.6km/h 2.0mph /  3.2km/h 73% 0.00in /  0mm
07:14 54.6 °F /  12.6 °C 45.4 °F /  7.4 °C 30.07in /  1018.2hPa North 1.0mph /  1.6km/h 4.0mph /  6.4km/h 71% 0.00in /  0mm
07:19 55.0 °F /  12.8 °C 45.0 °F /  7.2 °C 30.07in /  1018.2hPa North 2.0mph /  3.2km/h 7.0mph /  11.3km/h 69% 0.00in /  0mm
07:24 55.1 °F /  12.8 °C 44.7 °F /  7.1 °C 30.07in /  1018.2hPa NNE 2.0mph /  3.2km/h 7.0mph /  11.3km/h 68% 0.00in /  0mm
07:29 55.3 °F /  12.9 °C 44.5 °F /  6.9 °C 30.07in /  1018.2hPa NNE 3.0mph /  4.8km/h 7.0mph /  11.3km/h 67% 0.00in /  0mm
07:34 55.3 °F /  12.9 °C 44.5 °F /  6.9 °C 30.08in /  1018.5hPa NNE 2.0mph /  3.2km/h 6.0mph /  9.7km/h 67% 0.00in /  0mm
07:39 55.5 °F /  13.1 °C 44.3 °F /  6.8 °C 30.08in /  1018.5hPa ENE 4.0mph /  6.4km/h 9.0mph /  14.5km/h 66% 0.00in /  0mm
07:44 55.8 °F /  13.2 °C 44.6 °F /  7 °C 30.08in /  1018.5hPa ENE 2.0mph /  3.2km/h 8.0mph /  12.9km/h 66% 0.00in /  0mm
07:49 56.0 °F /  13.3 °C 44.8 °F /  7.1 °C 30.08in /  1018.5hPa ENE 3.0mph /  4.8km/h 10.0mph /  16.1km/h 66% 0.00in /  0mm
07:54 56.3 °F /  13.5 °C 44.7 °F /  7.1 °C 30.08in /  1018.5hPa NE 2.0mph /  3.2km/h 7.0mph /  11.3km/h 65% 0.00in /  0mm
07:59 56.5 °F /  13.6 °C 45.3 °F /  7.4 °C 30.08in /  1018.5hPa North 3.0mph /  4.8km/h 7.0mph /  11.3km/h 66% 0.00in /  0mm
08:04 56.7 °F /  13.7 °C 45.1 °F /  7.3 °C 30.08in /  1018.5hPa North 3.0mph /  4.8km/h 5.0mph /  8km/h 65% 0.00in /  0mm
08:09 56.7 °F /  13.7 °C 45.1 °F /  7.3 °C 30.08in /  1018.5hPa ENE 4.0mph /  6.4km/h 7.0mph /  11.3km/h 65% 0.00in /  0mm
08:14 57.2 °F /  14 °C 45.5 °F /  7.5 °C 30.08in /  1018.5hPa NE 2.0mph /  3.2km/h 7.0mph /  11.3km/h 65% 0.00in /  0mm
08:19 57.6 °F /  14.2 °C 45.9 °F /  7.7 °C 30.08in /  1018.5hPa ENE 2.0mph /  3.2km/h 7.0mph /  11.3km/h 65% 0.00in /  0mm
08:24 57.7 °F /  14.3 °C 45.2 °F /  7.3 °C 30.08in /  1018.5hPa ENE 2.0mph /  3.2km/h 5.0mph /  8km/h 63% 0.00in /  0mm
08:29 58.0 °F /  14.4 °C 45.9 °F /  7.7 °C 30.08in /  1018.5hPa NE 2.0mph /  3.2km/h 6.0mph /  9.7km/h 64% 0.00in /  0mm
08:34 58.1 °F /  14.5 °C 45.6 °F /  7.6 °C 30.08in /  1018.5hPa NE 2.0mph /  3.2km/h 6.0mph /  9.7km/h 63% 0.00in /  0mm
08:39 58.6 °F /  14.8 °C 47.3 °F /  8.5 °C 30.08in /  1018.5hPa ESE 2.0mph /  3.2km/h 6.0mph /  9.7km/h 66% 0.00in /  0mm
08:44 58.6 °F /  14.8 °C 45.6 °F /  7.6 °C 30.08in /  1018.5hPa East 3.0mph /  4.8km/h 6.0mph /  9.7km/h 62% 0.00in /  0mm
08:54 59.1 °F /  15.1 °C 46.1 °F /  7.8 °C 30.08in /  1018.5hPa NNE 2.0mph /  3.2km/h 3.0mph /  4.8km/h 62% 0.00in /  0mm
08:59 59.0 °F /  15 °C 45.6 °F /  7.6 °C 30.08in /  1018.5hPa Calm   4.0mph /  6.4km/h 61% 0.00in /  0mm
09:04 59.5 °F /  15.3 °C 45.6 °F /  7.6 °C 30.08in /  1018.5hPa ENE 1.0mph /  1.6km/h 4.0mph /  6.4km/h 60% 0.00in /  0mm
09:09 60.2 °F /  15.7 °C 46.3 °F /  7.9 °C 30.08in /  1018.5hPa NE 2.0mph /  3.2km/h 7.0mph /  11.3km/h 60% 0.00in /  0mm
09:14 60.7 °F /  15.9 °C 45.8 °F /  7.7 °C 30.08in /  1018.5hPa ENE 2.0mph /  3.2km/h 5.0mph /  8km/h 58% 0.00in /  0mm
09:19 60.5 °F /  15.8 °C 46.5 °F /  8.1 °C 30.08in /  1018.5hPa NE 2.0mph /  3.2km/h 5.0mph /  8km/h 60% 0.00in /  0mm
09:24 60.6 °F /  15.9 °C 47.9 °F /  8.8 °C 30.08in /  1018.5hPa ENE 1.0mph /  1.6km/h 5.0mph /  8km/h 63% 0.00in /  0mm
09:29 61.2 °F /  16.2 °C 46.3 °F /  7.9 °C 30.08in /  1018.5hPa NE 1.0mph /  1.6km/h 5.0mph /  8km/h 58% 0.00in /  0mm
09:34 61.5 °F /  16.4 °C 45.7 °F /  7.6 °C 30.08in /  1018.5hPa NNE 1.0mph /  1.6km/h 5.0mph /  8km/h 56% 0.00in /  0mm
09:39 61.5 °F /  16.4 °C 46.6 °F /  8.1 °C 30.08in /  1018.5hPa ESE 1.0mph /  1.6km/h 4.0mph /  6.4km/h 58% 0.00in /  0mm
09:44 62.3 °F /  16.8 °C 46.4 °F /  8 °C 30.08in /  1018.5hPa ESE 1.0mph /  1.6km/h 4.0mph /  6.4km/h 56% 0.00in /  0mm
09:49 62.0 °F /  16.7 °C 45.6 °F /  7.6 °C 30.08in /  1018.5hPa SW 3.0mph /  4.8km/h 4.0mph /  6.4km/h 55% 0.00in /  0mm
09:54 62.0 °F /  16.7 °C 47.5 °F /  8.6 °C 30.08in /  1018.5hPa SSW 2.0mph /  3.2km/h 4.0mph /  6.4km/h 59% 0.00in /  0mm
09:59 62.9 °F /  17.2 °C 47.4 °F /  8.6 °C 30.08in /  1018.5hPa West 1.0mph /  1.6km/h 5.0mph /  8km/h 57% 0.00in /  0mm
10:04 62.9 °F /  17.2 °C 46.5 °F /  8.1 °C 30.07in /  1018.2hPa West 1.0mph /  1.6km/h 6.0mph /  9.7km/h 55% 0.00in /  0mm
10:09 63.0 °F /  17.2 °C 46.1 °F /  7.8 °C 30.07in /  1018.2hPa WSW 1.0mph /  1.6km/h 5.0mph /  8km/h 54% 0.00in /  0mm
10:14 62.7 °F /  17.1 °C 46.3 °F /  7.9 °C 30.07in /  1018.2hPa Calm   3.0mph /  4.8km/h 55% 0.00in /  0mm
10:19 63.6 °F /  17.6 °C 48.1 °F /  8.9 °C 30.07in /  1018.2hPa West 4.0mph /  6.4km/h 6.0mph /  9.7km/h 57% 0.00in /  0mm
10:24 63.7 °F /  17.6 °C 46.2 °F /  7.9 °C 30.07in /  1018.2hPa West 2.0mph /  3.2km/h 6.0mph /  9.7km/h 53% 0.00in /  0mm
10:29 64.3 °F /  17.9 °C 46.8 °F /  8.2 °C 30.07in /  1018.2hPa WNW 1.0mph /  1.6km/h 4.0mph /  6.4km/h 53% 0.00in /  0mm
10:34 64.2 °F /  17.9 °C 47.2 °F /  8.4 °C 30.07in /  1018.2hPa SW 3.0mph /  4.8km/h 4.0mph /  6.4km/h 54% 0.00in /  0mm
10:39 63.8 °F /  17.7 °C 48.3 °F /  9.1 °C 30.07in /  1018.2hPa WNW 3.0mph /  4.8km/h 5.0mph /  8km/h 57% 0.00in /  0mm
10:44 63.7 °F /  17.6 °C 45.7 °F /  7.6 °C 30.07in /  1018.2hPa SW 3.0mph /  4.8km/h 7.0mph /  11.3km/h 52% 0.00in /  0mm
10:49 64.2 °F /  17.9 °C 45.7 °F /  7.6 °C 30.07in /  1018.2hPa West 4.0mph /  6.4km/h 5.0mph /  8km/h 51% 0.00in /  0mm
10:54 64.9 °F /  18.3 °C 48.3 °F /  9.1 °C 30.07in /  1018.2hPa WNW 3.0mph /  4.8km/h 8.0mph /  12.9km/h 55% 0.00in /  0mm
10:59 65.6 °F /  18.7 °C 47.5 °F /  8.6 °C 30.07in /  1018.2hPa NW 2.0mph /  3.2km/h 8.0mph /  12.9km/h 52% 0.00in /  0mm
11:04 66.3 °F /  19.1 °C 47.1 °F /  8.4 °C 30.07in /  1018.2hPa NW 3.0mph /  4.8km/h 8.0mph /  12.9km/h 50% 0.00in /  0mm
11:09 66.3 °F /  19.1 °C 47.6 °F /  8.7 °C 30.07in /  1018.2hPa WNW 4.0mph /  6.4km/h 8.0mph /  12.9km/h 51% 0.00in /  0mm
11:14 65.9 °F /  18.8 °C 46.2 °F /  7.9 °C 30.07in /  1018.2hPa WNW 4.0mph /  6.4km/h 8.0mph /  12.9km/h 49% 0.00in /  0mm
11:19 66.4 °F /  19.1 °C 46.7 °F /  8.2 °C 30.07in /  1018.2hPa West 6.0mph /  9.7km/h 13.0mph /  20.9km/h 49% 0.00in /  0mm
11:24 66.3 °F /  19.1 °C 46.0 °F /  7.8 °C 30.07in /  1018.2hPa NNW 4.0mph /  6.4km/h 7.0mph /  11.3km/h 48% 0.00in /  0mm
11:29 65.9 °F /  18.8 °C 46.2 °F /  7.9 °C 30.06in /  1017.8hPa North 3.0mph /  4.8km/h 7.0mph /  11.3km/h 49% 0.00in /  0mm
11:34 67.1 °F /  19.5 °C 48.9 °F /  9.4 °C 30.06in /  1017.8hPa NNE 4.0mph /  6.4km/h 9.0mph /  14.5km/h 52% 0.00in /  0mm
11:39 65.6 °F /  18.7 °C 46.5 °F /  8.1 °C 30.06in /  1017.8hPa NW 2.0mph /  3.2km/h 7.0mph /  11.3km/h 50% 0.00in /  0mm
11:44 65.7 °F /  18.7 °C 47.6 °F /  8.7 °C 30.06in /  1017.8hPa West 6.0mph /  9.7km/h 9.0mph /  14.5km/h 52% 0.00in /  0mm
11:49 66.3 °F /  19.1 °C 48.7 °F /  9.3 °C 30.06in /  1017.8hPa NW 2.0mph /  3.2km/h 7.0mph /  11.3km/h 53% 0.00in /  0mm
11:54 66.8 °F /  19.3 °C 48.6 °F /  9.2 °C 30.06in /  1017.8hPa NW 2.0mph /  3.2km/h 8.0mph /  12.9km/h 52% 0.00in /  0mm
11:59 67.9 °F /  19.9 °C 46.9 °F /  8.3 °C 30.06in /  1017.8hPa WNW 5.0mph /  8km/h 12.0mph /  19.3km/h 47% 0.00in /  0mm
12:04 67.8 °F /  19.9 °C 46.3 °F /  7.9 °C 30.06in /  1017.8hPa WNW 5.0mph /  8km/h 12.0mph /  19.3km/h 46% 0.00in /  0mm
12:09 67.4 °F /  19.7 °C 45.9 °F /  7.7 °C 30.06in /  1017.8hPa NW 4.0mph /  6.4km/h 11.0mph /  17.7km/h 46% 0.00in /  0mm
12:14 67.2 °F /  19.6 °C 47.4 °F /  8.6 °C 30.05in /  1017.5hPa NNW 4.0mph /  6.4km/h 9.0mph /  14.5km/h 49% 0.00in /  0mm
12:19 68.2 °F /  20.1 °C 46.6 °F /  8.1 °C 30.05in /  1017.5hPa NNW 5.0mph /  8km/h 9.0mph /  14.5km/h 46% 0.00in /  0mm
12:24 68.3 °F /  20.2 °C 48.9 °F /  9.4 °C 30.06in /  1017.8hPa West 4.0mph /  6.4km/h 14.0mph /  22.5km/h 50% 0.00in /  0mm
12:29 68.6 °F /  20.3 °C 50.8 °F /  10.4 °C 30.06in /  1017.8hPa WNW 5.0mph /  8km/h 14.0mph /  22.5km/h 53% 0.00in /  0mm
12:34 68.1 °F /  20.1 °C 48.2 °F /  9 °C 30.06in /  1017.8hPa West 5.0mph /  8km/h 11.0mph /  17.7km/h 49% 0.00in /  0mm
12:39 67.7 °F /  19.8 °C 48.4 °F /  9.1 °C 30.06in /  1017.8hPa SW 7.0mph /  11.3km/h 12.0mph /  19.3km/h 50% 0.00in /  0mm
12:44 67.9 °F /  19.9 °C 49.1 °F /  9.5 °C 30.06in /  1017.8hPa SW 7.0mph /  11.3km/h 14.0mph /  22.5km/h 51% 0.00in /  0mm
12:49 67.4 °F /  19.7 °C 49.7 °F /  9.8 °C 30.06in /  1017.8hPa WSW 5.0mph /  8km/h 12.0mph /  19.3km/h 53% 0.00in /  0mm
12:54 68.1 °F /  20.1 °C 49.3 °F /  9.6 °C 30.06in /  1017.8hPa West 1.0mph /  1.6km/h 10.0mph /  16.1km/h 51% 0.00in /  0mm
12:59 67.6 °F /  19.8 °C 48.8 °F /  9.3 °C 30.06in /  1017.8hPa SW 5.0mph /  8km/h 13.0mph /  20.9km/h 51% 0.00in /  0mm
13:04 68.5 °F /  20.3 °C 50.2 °F /  10.1 °C 30.06in /  1017.8hPa SW 5.0mph /  8km/h 13.0mph /  20.9km/h 52% 0.00in /  0mm
13:09 67.7 °F /  19.8 °C 49.4 °F /  9.7 °C 30.06in /  1017.8hPa WSW 1.0mph /  1.6km/h 9.0mph /  14.5km/h 52% 0.00in /  0mm
13:14 67.9 °F /  19.9 °C 49.1 °F /  9.5 °C 30.06in /  1017.8hPa NW 7.0mph /  11.3km/h 9.0mph /  14.5km/h 51% 0.00in /  0mm
13:19 68.6 °F /  20.3 °C 49.2 °F /  9.6 °C 30.06in /  1017.8hPa WSW 1.0mph /  1.6km/h 9.0mph /  14.5km/h 50% 0.00in /  0mm
13:24 68.7 °F /  20.4 °C 50.4 °F /  10.2 °C 30.06in /  1017.8hPa WSW 6.0mph /  9.7km/h 9.0mph /  14.5km/h 52% 0.00in /  0mm
13:29 68.8 °F /  20.4 °C 49.9 °F /  9.9 °C 30.05in /  1017.5hPa WSW 4.0mph /  6.4km/h 10.0mph /  16.1km/h 51% 0.00in /  0mm
13:34 68.8 °F /  20.4 °C 51.5 °F /  10.8 °C 30.05in /  1017.5hPa SW 5.0mph /  8km/h 10.0mph /  16.1km/h 54% 0.00in /  0mm
13:39 69.5 °F /  20.8 °C 49.5 °F /  9.7 °C 30.05in /  1017.5hPa WSW 4.0mph /  6.4km/h 10.0mph /  16.1km/h 49% 0.00in /  0mm
13:44 70.2 °F /  21.2 °C 48.4 °F /  9.1 °C 30.05in /  1017.5hPa West 4.0mph /  6.4km/h 10.0mph /  16.1km/h 46% 0.00in /  0mm
13:49 69.7 °F /  20.9 °C 48.0 °F /  8.9 °C 30.05in /  1017.5hPa SW 3.0mph /  4.8km/h 8.0mph /  12.9km/h 46% 0.00in /  0mm
13:54 69.1 °F /  20.6 °C 48.6 °F /  9.2 °C 30.05in /  1017.5hPa SSW 3.0mph /  4.8km/h 11.0mph /  17.7km/h 48% 0.00in /  0mm
13:59 68.8 °F /  20.4 °C 48.9 °F /  9.4 °C 30.05in /  1017.5hPa WSW 5.0mph /  8km/h 11.0mph /  17.7km/h 49% 0.00in /  0mm
14:04 69.2 °F /  20.7 °C 51.3 °F /  10.7 °C 30.05in /  1017.5hPa WSW 5.0mph /  8km/h 10.0mph /  16.1km/h 53% 0.00in /  0mm
14:09 68.8 °F /  20.4 °C 48.3 °F /  9.1 °C 30.05in /  1017.5hPa SW 6.0mph /  9.7km/h 10.0mph /  16.1km/h 48% 0.00in /  0mm
14:14 68.4 °F /  20.2 °C 49.0 °F /  9.4 °C 30.05in /  1017.5hPa Calm   8.0mph /  12.9km/h 50% 0.00in /  0mm
14:19 69.2 °F /  20.7 °C 49.2 °F /  9.6 °C 30.04in /  1017.2hPa SW 6.0mph /  9.7km/h 8.0mph /  12.9km/h 49% 0.00in /  0mm
14:24 69.1 °F /  20.6 °C 48.6 °F /  9.2 °C 30.04in /  1017.2hPa SW 5.0mph /  8km/h 9.0mph /  14.5km/h 48% 0.00in /  0mm
14:29 69.5 °F /  20.8 °C 47.2 °F /  8.4 °C 30.05in /  1017.5hPa SW 5.0mph /  8km/h 12.0mph /  19.3km/h 45% 0.00in /  0mm
14:34 69.4 °F /  20.8 °C 50.5 °F /  10.3 °C 30.05in /  1017.5hPa WSW 5.0mph /  8km/h 12.0mph /  19.3km/h 51% 0.00in /  0mm
14:39 68.8 °F /  20.4 °C 47.7 °F /  8.7 °C 30.05in /  1017.5hPa WSW 6.0mph /  9.7km/h 13.0mph /  20.9km/h 47% 0.00in /  0mm
14:44 68.3 °F /  20.2 °C 50.5 °F /  10.3 °C 30.04in /  1017.2hPa WSW 7.0mph /  11.3km/h 13.0mph /  20.9km/h 53% 0.00in /  0mm
14:49 68.6 °F /  20.3 °C 48.7 °F /  9.3 °C 30.04in /  1017.2hPa West 5.0mph /  8km/h 11.0mph /  17.7km/h 49% 0.00in /  0mm
14:54 68.0 °F /  20 °C 50.7 °F /  10.4 °C 30.05in /  1017.5hPa WSW 7.0mph /  11.3km/h 12.0mph /  19.3km/h 54% 0.00in /  0mm
14:59 68.2 °F /  20.1 °C 50.9 °F /  10.5 °C 30.05in /  1017.5hPa WSW 7.0mph /  11.3km/h 12.0mph /  19.3km/h 54% 0.00in /  0mm
15:04 68.0 °F /  20 °C 48.7 °F /  9.3 °C 30.05in /  1017.5hPa WSW 7.0mph /  11.3km/h 13.0mph /  20.9km/h 50% 0.00in /  0mm
15:09 68.2 °F /  20.1 °C 49.4 °F /  9.7 °C 30.05in /  1017.5hPa WSW 5.0mph /  8km/h 9.0mph /  14.5km/h 51% 0.00in /  0mm
15:14 68.6 °F /  20.3 °C 49.2 °F /  9.6 °C 30.05in /  1017.5hPa West 6.0mph /  9.7km/h 11.0mph /  17.7km/h 50% 0.00in /  0mm
15:19 68.7 °F /  20.4 °C 50.4 °F /  10.2 °C 30.04in /  1017.2hPa WNW 3.0mph /  4.8km/h 12.0mph /  19.3km/h 52% 0.00in /  0mm
15:24 68.8 °F /  20.4 °C 48.9 °F /  9.4 °C 30.05in /  1017.5hPa WSW 7.0mph /  11.3km/h 14.0mph /  22.5km/h 49% 0.00in /  0mm
15:29 68.7 °F /  20.4 °C 48.2 °F /  9 °C 30.05in /  1017.5hPa SW 3.0mph /  4.8km/h 12.0mph /  19.3km/h 48% 0.00in /  0mm
15:34 68.5 °F /  20.3 °C 49.1 °F /  9.5 °C 30.05in /  1017.5hPa WSW 6.0mph /  9.7km/h 12.0mph /  19.3km/h 50% 0.00in /  0mm
15:39 68.4 °F /  20.2 °C 49.0 °F /  9.4 °C 30.05in /  1017.5hPa WSW 7.0mph /  11.3km/h 14.0mph /  22.5km/h 50% 0.00in /  0mm
15:44 68.9 °F /  20.5 °C 47.8 °F /  8.8 °C 30.05in /  1017.5hPa WSW 6.0mph /  9.7km/h 15.0mph /  24.1km/h 47% 0.00in /  0mm
15:49 68.9 °F /  20.5 °C 48.9 °F /  9.4 °C 30.04in /  1017.2hPa SW 6.0mph /  9.7km/h 15.0mph /  24.1km/h 49% 0.00in /  0mm
15:54 68.7 °F /  20.4 °C 48.2 °F /  9 °C 30.04in /  1017.2hPa SW 6.0mph /  9.7km/h 14.0mph /  22.5km/h 48% 0.00in /  0mm
15:59 68.8 °F /  20.4 °C 47.2 °F /  8.4 °C 30.04in /  1017.2hPa SW 4.0mph /  6.4km/h 11.0mph /  17.7km/h 46% 0.00in /  0mm
16:04 69.0 °F /  20.6 °C 48.5 °F /  9.2 °C 30.05in /  1017.5hPa SW 6.0mph /  9.7km/h 12.0mph /  19.3km/h 48% 0.00in /  0mm
16:09 68.9 °F /  20.5 °C 48.4 °F /  9.1 °C 30.04in /  1017.2hPa SW 7.0mph /  11.3km/h 11.0mph /  17.7km/h 48% 0.00in /  0mm
16:14 69.1 °F /  20.6 °C 46.3 °F /  7.9 °C 30.04in /  1017.2hPa West 6.0mph /  9.7km/h 9.0mph /  14.5km/h 44% 0.00in /  0mm
16:19 69.3 °F /  20.7 °C 45.8 °F /  7.7 °C 30.04in /  1017.2hPa WSW 3.0mph /  4.8km/h 10.0mph /  16.1km/h 43% 0.00in /  0mm
16:24 69.1 °F /  20.6 °C 46.3 °F /  7.9 °C 30.04in /  1017.2hPa South 5.0mph /  8km/h 9.0mph /  14.5km/h 44% 0.00in /  0mm
16:29 69.3 °F /  20.7 °C 46.4 °F /  8 °C 30.03in /  1016.8hPa SSW 2.0mph /  3.2km/h 9.0mph /  14.5km/h 44% 0.00in /  0mm
16:34 69.7 °F /  20.9 °C 46.2 °F /  7.9 °C 30.03in /  1016.8hPa SSW 4.0mph /  6.4km/h 9.0mph /  14.5km/h 43% 0.00in /  0mm
16:39 70.1 °F /  21.2 °C 47.2 °F /  8.4 °C 30.03in /  1016.8hPa South 3.0mph /  4.8km/h 7.0mph /  11.3km/h 44% 0.00in /  0mm
16:44 69.9 °F /  21.1 °C 47.0 °F /  8.3 °C 30.03in /  1016.8hPa SSW 3.0mph /  4.8km/h 8.0mph /  12.9km/h 44% 0.00in /  0mm
16:49 69.9 °F /  21.1 °C 47.0 °F /  8.3 °C 30.03in /  1016.8hPa West 4.0mph /  6.4km/h 9.0mph /  14.5km/h 44% 0.00in /  0mm
16:54 69.6 °F /  20.9 °C 44.2 °F /  6.8 °C 30.03in /  1016.8hPa West 5.0mph /  8km/h 9.0mph /  14.5km/h 40% 0.00in /  0mm
16:59 69.5 °F /  20.8 °C 48.4 °F /  9.1 °C 30.03in /  1016.8hPa WSW 5.0mph /  8km/h 7.0mph /  11.3km/h 47% 0.00in /  0mm
17:04 69.3 °F /  20.7 °C 43.9 °F /  6.6 °C 30.03in /  1016.8hPa SSW 2.0mph /  3.2km/h 7.0mph /  11.3km/h 40% 0.00in /  0mm
17:09 69.3 °F /  20.7 °C 43.9 °F /  6.6 °C 30.03in /  1016.8hPa SW 3.0mph /  4.8km/h 7.0mph /  11.3km/h 40% 0.00in /  0mm
17:14 69.5 °F /  20.8 °C 44.1 °F /  6.7 °C 30.03in /  1016.8hPa SW 6.0mph /  9.7km/h 6.0mph /  9.7km/h 40% 0.00in /  0mm
17:19 69.9 °F /  21.1 °C 46.4 °F /  8 °C 30.03in /  1016.8hPa WSW 6.0mph /  9.7km/h 8.0mph /  12.9km/h 43% 0.00in /  0mm
17:24 69.9 °F /  21.1 °C 47.0 °F /  8.3 °C 30.03in /  1016.8hPa West 3.0mph /  4.8km/h 7.0mph /  11.3km/h 44% 0.00in /  0mm
17:29 69.4 °F /  20.8 °C 44.7 °F /  7.1 °C 30.03in /  1016.8hPa SW 2.0mph /  3.2km/h 8.0mph /  12.9km/h 41% 0.00in /  0mm
17:34 69.5 °F /  20.8 °C 45.4 °F /  7.4 °C 30.03in /  1016.8hPa WSW 5.0mph /  8km/h 8.0mph /  12.9km/h 42% 0.00in /  0mm
17:39 69.1 °F /  20.6 °C 45.0 °F /  7.2 °C 30.03in /  1016.8hPa SW 5.0mph /  8km/h 8.0mph /  12.9km/h 42% 0.00in /  0mm
17:44 69.0 °F /  20.6 °C 43.7 °F /  6.5 °C 30.03in /  1016.8hPa SW 5.0mph /  8km/h 10.0mph /  16.1km/h 40% 0.00in /  0mm
17:49 69.0 °F /  20.6 °C 44.3 °F /  6.8 °C 30.03in /  1016.8hPa WSW 4.0mph /  6.4km/h 10.0mph /  16.1km/h 41% 0.00in /  0mm
17:54 68.9 °F /  20.5 °C 45.5 °F /  7.5 °C 30.03in /  1016.8hPa WSW 1.0mph /  1.6km/h 8.0mph /  12.9km/h 43% 0.00in /  0mm
17:59 69.0 °F /  20.6 °C 44.3 °F /  6.8 °C 30.03in /  1016.8hPa South 2.0mph /  3.2km/h 9.0mph /  14.5km/h 41% 0.00in /  0mm
18:04 69.2 °F /  20.7 °C 46.4 °F /  8 °C 30.03in /  1016.8hPa SW 4.0mph /  6.4km/h 12.0mph /  19.3km/h 44% 0.00in /  0mm
18:09 69.0 °F /  20.6 °C 43.7 °F /  6.5 °C 30.03in /  1016.8hPa SW 5.0mph /  8km/h 12.0mph /  19.3km/h 40% 0.00in /  0mm
18:14 69.2 °F /  20.7 °C 44.5 °F /  6.9 °C 30.03in /  1016.8hPa WSW 5.0mph /  8km/h 12.0mph /  19.3km/h 41% 0.00in /  0mm
18:19 69.2 °F /  20.7 °C 44.5 °F /  6.9 °C 30.03in /  1016.8hPa WSW 4.0mph /  6.4km/h 9.0mph /  14.5km/h 41% 0.00in /  0mm
18:24 69.1 °F /  20.6 °C 45.7 °F /  7.6 °C 30.03in /  1016.8hPa WSW 4.0mph /  6.4km/h 9.0mph /  14.5km/h 43% 0.00in /  0mm
18:29 68.8 °F /  20.4 °C 44.8 °F /  7.1 °C 30.02in /  1016.5hPa WSW 3.0mph /  4.8km/h 6.0mph /  9.7km/h 42% 0.00in /  0mm
18:34 68.8 °F /  20.4 °C 44.1 °F /  6.7 °C 30.02in /  1016.5hPa WSW 3.0mph /  4.8km/h 5.0mph /  8km/h 41% 0.00in /  0mm
18:39 68.7 °F /  20.4 °C 43.4 °F /  6.3 °C 30.02in /  1016.5hPa SW 3.0mph /  4.8km/h 8.0mph /  12.9km/h 40% 0.00in /  0mm
18:44 68.5 °F /  20.3 °C 44.5 °F /  6.9 °C 30.01in /  1016.1hPa SW 3.0mph /  4.8km/h 7.0mph /  11.3km/h 42% 0.00in /  0mm
18:49 68.4 °F /  20.2 °C 46.2 °F /  7.9 °C 30.01in /  1016.1hPa West 1.0mph /  1.6km/h 6.0mph /  9.7km/h 45% 0.00in /  0mm
18:54 68.3 °F /  20.2 °C 44.9 °F /  7.2 °C 30.01in /  1016.1hPa WSW 2.0mph /  3.2km/h 6.0mph /  9.7km/h 43% 0.00in /  0mm
18:59 68.1 °F /  20.1 °C 45.4 °F /  7.4 °C 30.01in /  1016.1hPa SW 4.0mph /  6.4km/h 8.0mph /  12.9km/h 44% 0.00in /  0mm
19:04 67.8 °F /  19.9 °C 45.1 °F /  7.3 °C 30.01in /  1016.1hPa SSW 2.0mph /  3.2km/h 6.0mph /  9.7km/h 44% 0.00in /  0mm
19:09 67.4 °F /  19.7 °C 45.9 °F /  7.7 °C 30.01in /  1016.1hPa WSW 4.0mph /  6.4km/h 5.0mph /  8km/h 46% 0.00in /  0mm
19:14 67.1 °F /  19.5 °C 46.2 °F /  7.9 °C 30.01in /  1016.1hPa SW 3.0mph /  4.8km/h 5.0mph /  8km/h 47% 0.00in /  0mm
19:19 66.5 °F /  19.2 °C 45.1 °F /  7.3 °C 30.01in /  1016.1hPa WSW 3.0mph /  4.8km/h 6.0mph /  9.7km/h 46% 0.00in /  0mm
19:24 66.1 °F /  18.9 °C 45.3 °F /  7.4 °C 30.01in /  1016.1hPa WSW 3.0mph /  4.8km/h 7.0mph /  11.3km/h 47% 0.00in /  0mm
19:29 66.0 °F /  18.9 °C 45.7 °F /  7.6 °C 30.01in /  1016.1hPa WSW 2.0mph /  3.2km/h 7.0mph /  11.3km/h 48% 0.00in /  0mm
19:34 65.9 °F /  18.8 °C 45.1 °F /  7.3 °C 30.01in /  1016.1hPa WSW 2.0mph /  3.2km/h 4.0mph /  6.4km/h 47% 0.00in /  0mm
19:39 65.9 °F /  18.8 °C 44.5 °F /  6.9 °C 30.01in /  1016.1hPa West 2.0mph /  3.2km/h 6.0mph /  9.7km/h 46% 0.00in /  0mm
19:44 65.9 °F /  18.8 °C 43.9 °F /  6.6 °C 30.01in /  1016.1hPa SW 2.0mph /  3.2km/h 6.0mph /  9.7km/h 45% 0.00in /  0mm
19:49 66.1 °F /  18.9 °C 45.3 °F /  7.4 °C 30.01in /  1016.1hPa SW 2.0mph /  3.2km/h 5.0mph /  8km/h 47% 0.00in /  0mm
19:54 65.6 °F /  18.7 °C 44.8 °F /  7.1 °C 30.01in /  1016.1hPa WSW 3.0mph /  4.8km/h 6.0mph /  9.7km/h 47% 0.00in /  0mm
19:59 65.2 °F /  18.4 °C 43.9 °F /  6.6 °C 30.01in /  1016.1hPa SW 4.0mph /  6.4km/h 5.0mph /  8km/h 46% 0.00in /  0mm
20:04 64.8 °F /  18.2 °C 44.6 °F /  7 °C 30.01in /  1016.1hPa SW 4.0mph /  6.4km/h 5.0mph /  8km/h 48% 0.00in /  0mm
20:09 64.4 °F /  18 °C 42.6 °F /  5.9 °C 30.01in /  1016.1hPa SW 1.0mph /  1.6km/h 6.0mph /  9.7km/h 45% 0.00in /  0mm
20:14 64.0 °F /  17.8 °C 42.8 °F /  6 °C 30.01in /  1016.1hPa Calm   6.0mph /  9.7km/h 46% 0.00in /  0mm
20:19 63.6 °F /  17.6 °C 41.9 °F /  5.5 °C 30.00in /  1015.8hPa SW 3.0mph /  4.8km/h 6.0mph /  9.7km/h 45% 0.00in /  0mm
20:24 63.3 °F /  17.4 °C 42.7 °F /  5.9 °C 30.01in /  1016.1hPa SW 3.0mph /  4.8km/h 6.0mph /  9.7km/h 47% 0.00in /  0mm
20:29 62.9 °F /  17.2 °C 42.4 °F /  5.8 °C 30.00in /  1015.8hPa SW 2.0mph /  3.2km/h 4.0mph /  6.4km/h 47% 0.00in /  0mm
20:34 62.5 °F /  16.9 °C 42.5 °F /  5.8 °C 30.00in /  1015.8hPa Calm     48% 0.00in /  0mm
20:39 62.2 °F /  16.8 °C 42.8 °F /  6 °C 30.00in /  1015.8hPa Calm     49% 0.00in /  0mm
20:44 61.8 °F /  16.6 °C 42.4 °F /  5.8 °C 30.00in /  1015.8hPa Calm     49% 0.00in /  0mm
20:49 61.4 °F /  16.3 °C 42.1 °F /  5.6 °C 30.01in /  1016.1hPa Calm     49% 0.00in /  0mm
20:54 61.3 °F /  16.3 °C 42.0 °F /  5.6 °C 30.00in /  1015.8hPa Calm     49% 0.00in /  0mm
20:59 60.9 °F /  16.1 °C 41.6 °F /  5.3 °C 30.00in /  1015.8hPa Calm     49% 0.00in /  0mm
21:04 60.6 °F /  15.9 °C 42.4 °F /  5.8 °C 30.00in /  1015.8hPa Calm     51% 0.00in /  0mm
21:09 60.1 °F /  15.6 °C 41.9 °F /  5.5 °C 30.00in /  1015.8hPa Calm     51% 0.00in /  0mm
21:14 59.7 °F /  15.4 °C 42.5 °F /  5.8 °C 30.00in /  1015.8hPa Calm     53% 0.00in /  0mm
21:19 59.4 °F /  15.2 °C 42.7 °F /  5.9 °C 30.00in /  1015.8hPa Calm     54% 0.00in /  0mm
21:24 58.9 °F /  14.9 °C 42.8 °F /  6 °C 30.00in /  1015.8hPa Calm     55% 0.00in /  0mm
21:29 58.8 °F /  14.9 °C 42.7 °F /  5.9 °C 30.01in /  1016.1hPa Calm     55% 0.00in /  0mm
21:34 58.7 °F /  14.8 °C 42.6 °F /  5.9 °C 30.01in /  1016.1hPa Calm     55% 0.00in /  0mm
21:39 58.6 °F /  14.8 °C 42.5 °F /  5.8 °C 30.01in /  1016.1hPa Calm     55% 0.00in /  0mm
21:44 58.6 °F /  14.8 °C 42.0 °F /  5.6 °C 30.01in /  1016.1hPa Calm     54% 0.00in /  0mm
21:49 58.1 °F /  14.5 °C 42.5 °F /  5.8 °C 30.01in /  1016.1hPa Calm     56% 0.00in /  0mm
21:54 58.2 °F /  14.6 °C 42.1 °F /  5.6 °C 30.01in /  1016.1hPa Calm     55% 0.00in /  0mm
21:59 57.9 °F /  14.4 °C 42.3 °F /  5.7 °C 30.01in /  1016.1hPa Calm     56% 0.00in /  0mm
22:04 57.6 °F /  14.2 °C 42.5 °F /  5.8 °C 30.02in /  1016.5hPa Calm     57% 0.00in /  0mm
22:09 57.3 °F /  14.1 °C 42.6 °F /  5.9 °C 30.02in /  1016.5hPa Calm     58% 0.00in /  0mm
22:14 57.1 °F /  13.9 °C 42.9 °F /  6.1 °C 30.02in /  1016.5hPa Calm     59% 0.00in /  0mm
22:19 56.8 °F /  13.8 °C 43.1 °F /  6.2 °C 30.02in /  1016.5hPa Calm     60% 0.00in /  0mm
22:24 56.7 °F /  13.7 °C 43.0 °F /  6.1 °C 30.02in /  1016.5hPa Calm     60% 0.00in /  0mm
22:29 56.8 °F /  13.8 °C 43.1 °F /  6.2 °C 30.01in /  1016.1hPa Calm     60% 0.00in /  0mm
22:34 56.9 °F /  13.8 °C 43.2 °F /  6.2 °C 30.01in /  1016.1hPa Calm     60% 0.00in /  0mm
22:39 56.4 °F /  13.6 °C 43.1 °F /  6.2 °C 30.01in /  1016.1hPa Calm     61% 0.00in /  0mm
22:44 56.1 °F /  13.4 °C 43.3 °F /  6.3 °C 30.01in /  1016.1hPa Calm     62% 0.00in /  0mm
22:49 56.0 °F /  13.3 °C 43.6 °F /  6.4 °C 30.01in /  1016.1hPa Calm     63% 0.00in /  0mm
22:54 56.3 °F /  13.5 °C 44.3 °F /  6.8 °C 30.01in /  1016.1hPa Calm     64% 0.00in /  0mm
22:59 56.2 °F /  13.4 °C 44.6 °F /  7 °C 30.01in /  1016.1hPa Calm     65% 0.00in /  0mm
23:04 55.8 °F /  13.2 °C 45.0 °F /  7.2 °C 30.01in /  1016.1hPa Calm     67% 0.00in /  0mm
23:09 55.6 °F /  13.1 °C 45.2 °F /  7.3 °C 30.01in /  1016.1hPa Calm     68% 0.00in /  0mm
23:14 55.5 °F /  13.1 °C 45.1 °F /  7.3 °C 30.01in /  1016.1hPa Calm     68% 0.00in /  0mm
23:19 55.5 °F /  13.1 °C 45.5 °F /  7.5 °C 30.01in /  1016.1hPa Calm     69% 0.00in /  0mm
23:24 55.5 °F /  13.1 °C 45.9 °F /  7.7 °C 30.01in /  1016.1hPa Calm     70% 0.00in /  0mm
23:29 55.3 °F /  12.9 °C 45.7 °F /  7.6 °C 30.00in /  1015.8hPa Calm     70% 0.00in /  0mm
23:34 55.2 °F /  12.9 °C 46.0 °F /  7.8 °C 30.00in /  1015.8hPa Calm     71% 0.00in /  0mm
23:39 55.1 °F /  12.8 °C 46.2 °F /  7.9 °C 30.01in /  1016.1hPa Calm     72% 0.00in /  0mm
23:44 55.0 °F /  12.8 °C 46.5 °F /  8.1 °C 30.01in /  1016.1hPa Calm     73% 0.00in /  0mm
23:49 54.8 °F /  12.7 °C 46.3 °F /  7.9 °C 30.01in /  1016.1hPa Calm     73% 0.00in /  0mm
23:54 54.9 °F /  12.7 °C 46.4 °F /  8 °C 30.01in /  1016.1hPa Calm     73% 0.00in /  0mm
23:59 54.7 °F /  12.6 °C 46.2 °F /  7.9 °C 30.01in /  1016.1hPa Calm     73% 0.00in /  0mm
Buffalo, New York, USA
Compliments of Weather Underground - 2.5 mb